Time;durP1;ratioP1;P1;durP2;ratioP2;P2;SDS_P1;SDS_P2;PMS_P1;PMS_P2;Temp;Humidity;BMP_temperature;BMP_pressure;BME280_temperature;BME280_humidity;BME280_pressure;Samples;Min_cycle;Max_cycle;Signal;HPM_P1;HPM_P2
2022/02/11 00:05:32;;;;;;;;;;;;;;;11.90;48.75;102413.31;145002;921;1018;-86
2022/02/11 00:07:45;;;;;;;;;;;;;;;11.84;48.94;102419.91;145002;916;1022;-86
2022/02/11 00:10:11;;;;;;;;;;;;;;;11.81;48.80;102412.81;145002;925;1020;-87
2022/02/11 00:12:38;;;;;;;;;;;;;;;11.80;48.93;102417.13;145002;921;1022;-86
2022/02/11 00:15:31;;;;;;;;;;;;;;;11.81;48.85;102418.03;145002;924;1018;-87
2022/02/11 00:17:50;;;;;;;;;;;;;;;11.83;48.49;102412.91;145002;917;1019;-85
2022/02/11 00:20:16;;;;;;;;;;;;;;;11.80;48.48;102411.94;145002;925;1020;-86
2022/02/11 00:22:42;;;;;;;;;;;;;;;11.79;48.61;102409.25;145002;920;1022;-87
2022/02/11 00:25:09;;;;;;;;;;;;;;;11.77;48.54;102409.19;145002;921;1016;-86
2022/02/11 00:31:02;;;;;;;;;;;;;;;11.70;48.78;102404.44;145002;920;1018;-86
2022/02/11 00:36:06;;;;;;;;;;;;;;;11.67;48.83;102411.22;145002;920;1019;-86
2022/02/11 01:03:58;;;;;;;;;;;;;;;11.48;49.13;102381.63;145002;923;1017;-85
2022/02/11 01:06:24;;;;;;;;;;;;;;;11.46;49.09;102383.25;145003;921;1024;-87
2022/02/11 01:08:50;;;;;;;;;;;;;;;11.44;49.18;102377.97;145003;924;1019;-86
2022/02/11 01:11:24;;;;;;;;;;;;;;;11.42;49.54;102383.91;145003;921;1021;-86
2022/02/11 01:13:50;;;;;;;;;;;;;;;11.41;49.54;102375.22;145003;927;1020;-87
2022/02/11 01:16:21;;;;;;;;;;;;;;;11.39;49.06;102375.94;145003;917;1018;-86
2022/02/11 01:18:55;;;;;;;;;;;;;;;11.35;49.69;102374.00;145003;925;1017;-85
2022/02/11 01:21:31;;;;;;;;;;;;;;;11.33;49.45;102368.72;145003;921;1019;-86
2022/02/11 01:35:25;;;;;;;;;;;;;;;11.22;50.21;102362.94;145002;921;1018;-87
2022/02/11 01:47:26;;;;;;;;;;;;;;;11.31;50.33;102357.34;145002;925;1016;-88
2022/02/11 01:50:25;;;;;;;;;;;;;;;11.37;50.17;102355.09;145002;915;1019;-86
2022/02/11 01:53:01;;;;;;;;;;;;;;;11.40;49.79;102352.59;145002;922;1018;-85
2022/02/11 02:01:23;;;;;;;;;;;;;;;11.40;49.77;102356.94;145002;920;1018;-86
2022/02/11 02:12:31;;;;;;;;;;;;;;;11.25;49.98;102357.91;145002;921;1021;-87
2022/02/11 02:24:19;;;;;;;;;;;;;;;11.27;49.94;102347.59;145002;918;1020;-86
2022/02/11 02:32:47;;;;;;;;;;;;;;;11.38;49.40;102333.44;145002;924;1021;-87
2022/02/11 02:35:42;;;;;;;;;;;;;;;11.34;49.44;102334.13;145002;914;1019;-88
2022/02/11 02:58:11;;;;;;;;;;;;;;;10.90;49.43;102314.44;145002;916;1020;-87
2022/02/11 03:14:54;;;;;;;;;;;;;;;10.79;49.49;102312.97;145002;920;1020;-88
2022/02/11 03:53:58;;;;;;;;;;;;;;;10.61;50.27;102298.19;145002;918;1017;-88
2022/02/11 04:21:19;;;;;;;;;;;;;;;10.42;52.49;102297.94;145002;920;1018;-87
2022/02/11 04:27:04;;;;;;;;;;;;;;;10.44;52.06;102304.16;145002;921;1018;-86
2022/02/11 04:56:55;;;;;;;;;;;;;;;10.25;52.35;102329.03;145002;918;1020;-88
2022/02/11 04:59:39;;;;;;;;;;;;;;;10.26;52.28;102324.72;145002;918;1023;-87
2022/02/11 05:02:06;;;;;;;;;;;;;;;10.22;52.61;102326.25;145002;923;1019;-86
2022/02/11 05:04:33;;;;;;;;;;;;;;;10.22;52.59;102331.44;145002;918;1020;-86
2022/02/11 05:07:00;;;;;;;;;;;;;;;10.23;52.54;102329.72;145002;922;1019;-86
2022/02/11 05:09:27;;;;;;;;;;;;;;;10.22;52.38;102334.03;145002;919;1020;-85
2022/02/11 05:11:53;;;;;;;;;;;;;;;10.24;52.42;102335.00;145002;922;1021;-85
2022/02/11 05:14:19;;;;;;;;;;;;;;;10.25;52.40;102336.81;145002;919;1018;-86
2022/02/11 05:16:48;;;;;;;;;;;;;;;10.28;52.41;102338.69;145002;923;1019;-88
2022/02/11 05:19:29;;;;;;;;;;;;;;;10.32;52.37;102348.44;145002;918;1018;-87
2022/02/11 05:22:19;;;;;;;;;;;;;;;;;;;;;
2022/02/11 05:24:55;;;;;;;;;;;;;;;10.43;52.26;102354.28;145002;921;1016;-81
2022/02/11 05:27:37;;;;;;;;;;;;;;;10.51;52.25;102351.31;145002;924;1016;-86
2022/02/11 05:30:12;;;;;;;;;;;;;;;10.61;52.22;102359.59;145002;920;1019;-85
2022/02/11 05:32:47;;;;;;;;;;;;;;;10.65;52.22;102370.25;145002;925;1016;-84
2022/02/11 05:35:20;;;;;;;;;;;;;;;10.66;52.25;102368.56;145001;920;2000;-88
2022/02/11 05:37:54;;;;;;;;;;;;;;;10.74;52.12;102359.47;145002;925;1016;-84
2022/02/11 05:40:35;;;;;;;;;;;;;;;10.83;51.81;102367.78;145002;921;1015;-84
2022/02/11 05:43:07;;;;;;;;;;;;;;;10.86;51.68;102369.63;145002;924;1017;-86
2022/02/11 05:45:34;;;;;;;;;;;;;;;10.89;51.56;102368.09;145002;940;1015;-87
2022/02/11 05:48:00;;;;;;;;;;;;;;;10.91;51.26;102364.69;145002;925;1017;-85
2022/02/11 05:50:27;;;;;;;;;;;;;;;10.89;51.22;102369.81;145002;921;1019;-87
2022/02/11 05:52:53;;;;;;;;;;;;;;;10.85;51.08;102367.88;145002;925;1016;-83
2022/02/11 05:55:19;;;;;;;;;;;;;;;10.81;51.30;102369.37;145002;921;1017;-86
2022/02/11 05:57:45;;;;;;;;;;;;;;;10.74;51.46;102377.66;145002;920;1020;-88
2022/02/11 06:00:13;;;;;;;;;;;;;;;10.73;51.21;102377.56;145002;921;1019;-86
2022/02/11 06:02:38;;;;;;;;;;;;;;;10.70;51.20;102376.56;145002;925;1021;-85
2022/02/11 06:05:07;;;;;;;;;;;;;;;10.73;51.37;102370.66;145002;916;1023;-85
2022/02/11 06:07:32;;;;;;;;;;;;;;;10.69;51.63;102369.63;145002;924;1016;-87
2022/02/11 06:09:59;;;;;;;;;;;;;;;10.71;51.39;102372.28;145002;921;1023;-86
2022/02/11 06:12:25;;;;;;;;;;;;;;;10.70;51.53;102368.78;145002;921;1018;-86
2022/02/11 06:14:55;;;;;;;;;;;;;;;10.75;51.71;102369.03;145002;920;1018;-86
2022/02/11 06:17:23;;;;;;;;;;;;;;;10.85;51.75;102365.28;145002;925;1020;-88
2022/02/11 06:19:49;;;;;;;;;;;;;;;10.92;51.94;102361.31;145002;920;1019;-86
2022/02/11 06:22:16;;;;;;;;;;;;;;;10.98;51.80;102370.31;145002;925;1019;-84
2022/02/11 06:24:43;;;;;;;;;;;;;;;11.08;51.79;102369.09;145002;921;1017;-85
2022/02/11 06:27:09;;;;;;;;;;;;;;;11.14;51.35;102374.62;145002;924;1018;-87
2022/02/11 06:29:35;;;;;;;;;;;;;;;11.18;51.47;102366.22;145002;917;1016;-85
2022/02/11 06:32:03;;;;;;;;;;;;;;;11.29;51.46;102371.97;145002;510;1357;-86
2022/02/11 06:34:29;;;;;;;;;;;;;;;11.35;51.06;102374.00;145002;922;1019;-87
2022/02/11 06:36:56;;;;;;;;;;;;;;;11.43;51.19;102370.97;145002;922;1017;-87
2022/02/11 06:39:24;;;;;;;;;;;;;;;11.54;51.37;102368.94;145002;922;1017;-87
2022/02/11 06:41:54;;;;;;;;;;;;;;;11.68;51.15;102367.06;145002;922;1019;-87
2022/02/11 06:44:20;;;;;;;;;;;;;;;11.83;51.40;102364.34;145002;922;1020;-89
2022/02/11 06:46:46;;;;;;;;;;;;;;;11.97;51.35;102363.38;145002;918;1017;-88
2022/02/11 06:49:19;;;;;;;;;;;;;;;12.13;51.26;102367.62;145002;922;1017;-89
2022/02/11 06:51:45;;;;;;;;;;;;;;;12.32;51.06;102359.00;145002;922;1020;-86
2022/02/11 06:54:11;;;;;;;;;;;;;;;12.48;50.86;102367.56;145002;922;1018;-86
2022/02/11 06:56:40;;;;;;;;;;;;;;;12.64;51.19;102364.00;145001;922;2000;-86
2022/02/11 06:59:06;;;;;;;;;;;;;;;12.77;50.90;102365.47;145002;922;1019;-87
2022/02/11 07:01:32;;;;;;;;;;;;;;;12.98;50.75;102368.16;145002;918;1022;-83
2022/02/11 07:03:58;;;;;;;;;;;;;;;13.17;50.60;102362.09;145002;922;1017;-85
2022/02/11 07:06:25;;;;;;;;;;;;;;;13.37;50.62;102365.63;145002;922;1017;-85
2022/02/11 07:08:50;;;;;;;;;;;;;;;13.51;50.33;102364.53;145002;918;1020;-85
2022/02/11 07:11:16;;;;;;;;;;;;;;;13.70;49.99;102375.78;145002;918;1023;-86
2022/02/11 07:13:42;;;;;;;;;;;;;;;13.89;49.93;102374.84;145002;918;1022;-88
2022/02/11 07:16:11;;;;;;;;;;;;;;;14.03;50.12;102378.03;145002;918;1017;-85
2022/02/11 07:18:37;;;;;;;;;;;;;;;14.15;50.04;102371.59;145002;922;1019;-85
2022/02/11 07:21:04;;;;;;;;;;;;;;;14.31;50.34;102372.22;145002;922;1019;-85
2022/02/11 07:23:42;;;;;;;;;;;;;;;;;;;;;
2022/02/11 07:26:08;;;;;;;;;;;;;;;14.69;50.19;102352.88;145002;920;1019;-87
2022/02/11 07:28:34;;;;;;;;;;;;;;;14.86;50.70;102358.75;145002;920;1018;-88
2022/02/11 07:31:01;;;;;;;;;;;;;;;15.03;50.30;102371.56;145002;874;1018;-83
2022/02/11 07:33:30;;;;;;;;;;;;;;;15.18;50.63;102366.94;145002;920;1020;-84
2022/02/11 07:35:56;;;;;;;;;;;;;;;15.35;50.02;102364.03;145002;920;1022;-85
2022/02/11 07:38:22;;;;;;;;;;;;;;;15.51;49.92;102355.91;145002;920;1019;-86
2022/02/11 07:40:49;;;;;;;;;;;;;;;15.63;50.04;102359.78;145002;916;1020;-88
2022/02/11 07:43:17;;;;;;;;;;;;;;;15.74;50.10;102359.31;145002;920;1019;-86
2022/02/11 07:45:43;;;;;;;;;;;;;;;15.88;49.87;102357.22;145002;920;1019;-87
2022/02/11 07:48:09;;;;;;;;;;;;;;;16.01;49.92;102357.62;145002;915;1019;-87
2022/02/11 07:50:38;;;;;;;;;;;;;;;16.11;50.31;102346.62;145001;920;2002;-85
2022/02/11 07:53:04;;;;;;;;;;;;;;;16.22;49.73;102347.84;145002;922;1019;-90
2022/02/11 07:55:45;;;;;;;;;;;;;;;15.95;49.46;102346.13;145002;923;1019;-86
2022/02/11 07:58:15;;;;;;;;;;;;;;;15.30;48.83;102337.69;145002;922;1017;-86
2022/02/11 08:00:44;;;;;;;;;;;;;;;15.02;50.28;102343.66;145002;922;1016;-86
2022/02/11 08:03:10;;;;;;;;;;;;;;;15.38;50.39;102344.12;145002;922;1023;-87
2022/02/11 08:05:36;;;;;;;;;;;;;;;15.65;49.64;102342.41;145002;922;1017;-84
2022/02/11 08:08:03;;;;;;;;;;;;;;;14.98;45.46;102345.25;145002;918;1019;-85
2022/02/11 08:10:29;;;;;;;;;;;;;;;15.49;49.18;102340.97;145002;921;1020;-86
2022/02/11 08:12:57;;;;;;;;;;;;;;;15.80;48.82;102340.38;145002;922;1018;-85
2022/02/11 08:15:23;;;;;;;;;;;;;;;16.05;48.47;102338.53;145001;922;2000;-88
2022/02/11 08:17:49;;;;;;;;;;;;;;;15.85;47.93;102336.16;145002;918;1019;-85
2022/02/11 08:20:19;;;;;;;;;;;;;;;16.10;48.53;102334.38;145002;922;1017;-86
2022/02/11 08:22:46;;;;;;;;;;;;;;;16.31;48.74;102331.56;145002;922;1016;-88
2022/02/11 08:25:15;;;;;;;;;;;;;;;16.50;48.06;102333.03;145002;922;1018;-88
2022/02/11 08:27:44;;;;;;;;;;;;;;;16.78;48.70;102333.84;145002;922;1021;-89
2022/02/11 08:30:11;;;;;;;;;;;;;;;16.95;47.89;102332.66;145002;922;1017;-87
2022/02/11 08:32:40;;;;;;;;;;;;;;;17.07;47.37;102329.50;145002;922;1019;-86
2022/02/11 08:35:07;;;;;;;;;;;;;;;17.22;47.81;102340.41;145002;922;1021;-86
2022/02/11 08:37:33;;;;;;;;;;;;;;;17.40;47.72;102344.41;145002;922;1017;-89
2022/02/11 08:39:59;;;;;;;;;;;;;;;17.51;45.57;102344.69;145002;922;1017;-84
2022/02/11 08:42:25;;;;;;;;;;;;;;;17.66;47.28;102347.75;145002;922;1017;-88
2022/02/11 08:44:51;;;;;;;;;;;;;;;17.79;47.55;102340.19;145002;922;1022;-87
2022/02/11 08:47:19;;;;;;;;;;;;;;;17.90;47.66;102344.87;145002;922;1020;-85
2022/02/11 08:49:45;;;;;;;;;;;;;;;17.95;45.09;102342.37;145001;922;2000;-85
2022/02/11 08:52:11;;;;;;;;;;;;;;;18.05;46.21;102347.00;145002;922;1017;-90
2022/02/11 08:54:38;;;;;;;;;;;;;;;18.18;46.18;102340.28;145002;923;1016;-85
2022/02/11 08:57:07;;;;;;;;;;;;;;;18.33;46.79;102345.06;145002;922;1021;-85
2022/02/11 08:59:34;;;;;;;;;;;;;;;18.34;45.98;102333.69;145002;922;1018;-83
2022/02/11 09:02:00;;;;;;;;;;;;;;;18.40;46.00;102335.56;145002;918;1019;-83
2022/02/11 09:04:26;;;;;;;;;;;;;;;18.49;46.30;102327.88;145002;918;1018;-84
2022/02/11 09:06:52;;;;;;;;;;;;;;;18.55;46.52;102335.00;145002;922;1018;-83
2022/02/11 09:09:19;;;;;;;;;;;;;;;18.55;46.32;102329.75;145002;922;1019;-86
2022/02/11 09:11:45;;;;;;;;;;;;;;;18.59;43.34;102319.34;145002;922;1021;-85
2022/02/11 09:14:12;;;;;;;;;;;;;;;18.57;45.74;102312.28;145002;922;1022;-84
2022/02/11 09:16:39;;;;;;;;;;;;;;;18.34;43.39;102315.28;145002;922;1018;-84
2022/02/11 09:19:09;;;;;;;;;;;;;;;18.31;45.64;102309.97;145002;922;1017;-83
2022/02/11 09:21:36;;;;;;;;;;;;;;;17.66;43.35;102312.72;145002;922;1016;-85
2022/02/11 09:24:03;;;;;;;;;;;;;;;17.11;44.51;102312.97;145002;922;1019;-86
2022/02/11 09:26:34;;;;;;;;;;;;;;;17.26;45.34;102314.25;145002;922;1018;-86
2022/02/11 09:29:04;;;;;;;;;;;;;;;17.64;44.06;102309.16;145002;922;1017;-87
2022/02/11 09:31:30;;;;;;;;;;;;;;;17.36;44.03;102309.31;145002;922;1019;-87
2022/02/11 09:34:04;;;;;;;;;;;;;;;16.99;43.94;102303.03;145002;922;1018;-85
2022/02/11 09:36:33;;;;;;;;;;;;;;;17.08;44.42;102304.16;145002;922;1020;-85
2022/02/11 09:39:04;;;;;;;;;;;;;;;16.68;43.44;102301.22;145002;922;1016;-86
2022/02/11 09:41:33;;;;;;;;;;;;;;;16.69;44.59;102303.88;145002;922;1020;-87
2022/02/11 09:44:24;;;;;;;;;;;;;;;16.95;44.36;102305.53;145002;922;1018;-88
2022/02/11 09:46:51;;;;;;;;;;;;;;;16.75;43.56;102307.53;145002;922;1018;-83
2022/02/11 09:49:17;;;;;;;;;;;;;;;16.67;44.69;102300.34;145002;922;1021;-86
2022/02/11 09:51:46;;;;;;;;;;;;;;;16.54;45.23;102292.06;145002;922;1017;-85
2022/02/11 09:54:17;;;;;;;;;;;;;;;16.37;45.10;102294.16;145002;923;1018;-84
2022/02/11 09:56:43;;;;;;;;;;;;;;;16.41;45.46;102286.44;145002;922;1017;-86
2022/02/11 09:59:09;;;;;;;;;;;;;;;16.03;45.73;102285.22;145002;922;1018;-85
2022/02/11 10:01:37;;;;;;;;;;;;;;;16.23;45.58;102281.53;145002;922;1020;-86
2022/02/11 10:04:19;;;;;;;;;;;;;;;16.22;46.19;102271.00;145002;922;1019;-87
2022/02/11 10:06:48;;;;;;;;;;;;;;;16.03;46.64;102262.53;145002;922;1020;-85
2022/02/11 10:09:15;;;;;;;;;;;;;;;16.40;46.00;102263.69;145002;922;1018;-86
2022/02/11 10:11:43;;;;;;;;;;;;;;;16.25;46.77;102256.25;145002;922;1016;-88
2022/02/11 10:14:22;;;;;;;;;;;;;;;15.89;46.73;102256.87;145002;922;1020;-85
2022/02/11 10:17:14;;;;;;;;;;;;;;;15.99;46.92;102247.59;145002;921;1022;-87
2022/02/11 10:19:52;;;;;;;;;;;;;;;16.10;46.65;102240.06;145002;922;1019;-85
2022/02/11 10:22:26;;;;;;;;;;;;;;;15.70;47.81;102237.03;145002;922;1018;-87
2022/02/11 10:24:57;;;;;;;;;;;;;;;15.49;49.12;102233.69;145002;922;1019;-88
2022/02/11 10:27:27;;;;;;;;;;;;;;;15.74;47.82;102231.03;145002;922;1019;-89
2022/02/11 10:30:11;;;;;;;;;;;;;;;15.38;49.61;102229.00;145002;922;1019;-88
2022/02/11 10:32:52;;;;;;;;;;;;;;;15.50;49.60;102223.28;145002;921;1024;-87
2022/02/11 10:35:30;;;;;;;;;;;;;;;15.55;48.96;102216.44;145002;922;1021;-87
2022/02/11 10:38:13;;;;;;;;;;;;;;;14.69;52.04;102214.34;145002;922;1019;-88
2022/02/11 10:40:40;;;;;;;;;;;;;;;14.64;51.92;102208.06;145002;922;1019;-87
2022/02/11 10:43:29;;;;;;;;;;;;;;;15.08;51.27;102194.81;145002;922;1019;-89
2022/02/11 10:46:01;;;;;;;;;;;;;;;15.07;51.08;102200.88;145002;922;1022;-88
2022/02/11 10:48:41;;;;;;;;;;;;;;;14.76;52.25;102201.50;145002;922;1019;-89
2022/02/11 10:51:23;;;;;;;;;;;;;;;15.21;51.39;102186.53;145002;922;1024;-91
2022/02/11 10:53:50;;;;;;;;;;;;;;;15.21;51.40;102190.91;145002;922;1022;-89
2022/02/11 10:56:18;;;;;;;;;;;;;;;15.11;51.79;102176.63;145002;922;1021;-88
2022/02/11 10:58:56;;;;;;;;;;;;;;;15.19;52.15;102175.16;145002;922;1018;-89
2022/02/11 11:01:23;;;;;;;;;;;;;;;15.00;53.38;102181.47;145002;922;1020;-90
2022/02/11 11:03:49;;;;;;;;;;;;;;;15.37;52.18;102179.22;145002;922;1019;-90
2022/02/11 11:06:18;;;;;;;;;;;;;;;15.23;52.80;102168.28;145002;923;1017;-90
2022/02/11 11:08:46;;;;;;;;;;;;;;;15.42;52.33;102168.06;145002;922;1021;-85
2022/02/11 11:11:13;;;;;;;;;;;;;;;15.02;52.99;102163.22;145002;922;1019;-87
2022/02/11 11:13:40;;;;;;;;;;;;;;;15.26;52.32;102159.66;145002;922;1018;-85
2022/02/11 11:16:10;;;;;;;;;;;;;;;14.64;54.24;102154.91;145002;923;1024;-86
2022/02/11 11:18:37;;;;;;;;;;;;;;;15.13;53.29;102142.63;145002;922;1018;-88
2022/02/11 11:21:07;;;;;;;;;;;;;;;15.00;54.23;102131.78;145002;922;1020;-86
2022/02/11 11:23:37;;;;;;;;;;;;;;;14.98;54.51;102133.44;145002;922;1019;-89
2022/02/11 11:26:10;;;;;;;;;;;;;;;15.22;53.08;102128.16;145002;922;1017;-86
2022/02/11 11:28:47;;;;;;;;;;;;;;;14.80;54.71;102117.13;145002;922;1023;-86
2022/02/11 11:31:27;;;;;;;;;;;;;;;14.99;53.47;102130.00;145002;922;1020;-86
2022/02/11 11:34:31;;;;;;;;;;;;;;;15.09;53.80;102115.50;145002;922;1022;-85
2022/02/11 11:37:03;;;;;;;;;;;;;;;14.86;54.58;102110.38;145002;922;1017;-88
2022/02/11 11:39:29;;;;;;;;;;;;;;;15.20;53.26;102108.91;145002;922;1018;-88
2022/02/11 11:42:06;;;;;;;;;;;;;;;14.92;54.47;102107.13;145002;918;1017;-87
2022/02/11 11:44:41;;;;;;;;;;;;;;;15.17;52.93;102100.06;145002;922;1017;-83
2022/02/11 11:47:09;;;;;;;;;;;;;;;14.79;54.71;102100.53;145002;922;1017;-89
2022/02/11 11:49:46;;;;;;;;;;;;;;;15.09;54.15;102101.56;145002;922;1017;-86
2022/02/11 11:52:13;;;;;;;;;;;;;;;15.09;54.22;102091.97;145002;923;1020;-84
2022/02/11 11:54:39;;;;;;;;;;;;;;;14.70;55.10;102095.03;145002;924;1019;-85
2022/02/11 11:57:23;;;;;;;;;;;;;;;14.84;54.53;102092.88;145002;922;1016;-85
2022/02/11 11:59:58;;;;;;;;;;;;;;;15.29;52.58;102091.72;145002;923;1019;-86
2022/02/11 12:02:28;;;;;;;;;;;;;;;15.05;53.52;102080.53;145002;922;1022;-87
2022/02/11 12:04:55;;;;;;;;;;;;;;;14.97;53.75;102081.09;145002;922;1019;-83
2022/02/11 12:07:35;;;;;;;;;;;;;;;14.92;54.18;102073.13;145001;923;1998;-85
2022/02/11 12:10:11;;;;;;;;;;;;;;;14.96;53.46;102067.13;145002;924;1020;-89
2022/02/11 12:12:39;;;;;;;;;;;;;;;15.12;53.24;102068.53;145002;924;1017;-84
2022/02/11 12:15:18;;;;;;;;;;;;;;;15.49;52.98;102064.47;145002;925;1017;-85
2022/02/11 12:18:03;;;;;;;;;;;;;;;15.36;52.68;102064.94;145002;924;1016;-88
2022/02/11 12:20:29;;;;;;;;;;;;;;;15.36;51.63;102060.56;145002;924;1017;-86
2022/02/11 12:28:25;;;;;;;;;;;;;;;15.05;50.15;102053.50;145002;921;1021;-86
2022/02/11 12:30:52;;;;;;;;;;;;;;;14.98;50.98;102055.00;145002;924;1019;-86
2022/02/11 12:33:20;;;;;;;;;;;;;;;15.33;49.18;102054.38;145002;924;1018;-85
2022/02/11 12:35:49;;;;;;;;;;;;;;;15.15;49.52;102052.94;145002;911;1020;-84
2022/02/11 12:38:15;;;;;;;;;;;;;;;15.50;49.73;102053.16;145002;924;1020;-85
2022/02/11 12:40:44;;;;;;;;;;;;;;;15.79;48.63;102047.94;145002;924;1022;-85
2022/02/11 12:43:13;;;;;;;;;;;;;;;15.79;48.62;102053.19;145002;924;1018;-86
2022/02/11 12:45:46;;;;;;;;;;;;;;;16.01;48.44;102054.69;145002;924;1016;-86
2022/02/11 12:48:17;;;;;;;;;;;;;;;15.94;48.17;102048.41;145002;924;1016;-84
2022/02/11 12:50:44;;;;;;;;;;;;;;;16.17;47.61;102039.41;145002;920;1020;-84
2022/02/11 12:53:11;;;;;;;;;;;;;;;16.22;46.90;102030.81;145002;924;1020;-82
2022/02/11 12:55:39;;;;;;;;;;;;;;;16.30;46.73;102026.72;145002;924;1016;-84
2022/02/11 12:58:10;;;;;;;;;;;;;;;16.12;41.19;102023.56;145002;925;1018;-84
2022/02/11 13:00:37;;;;;;;;;;;;;;;16.04;42.02;102022.47;145002;924;1018;-84
2022/02/11 13:03:05;;;;;;;;;;;;;;;16.24;44.11;102023.91;145002;924;1022;-85
2022/02/11 13:05:39;;;;;;;;;;;;;;;16.00;42.11;102020.59;145002;924;1021;-83
2022/02/11 13:08:08;;;;;;;;;;;;;;;15.83;44.78;102014.88;145002;924;1021;-84
2022/02/11 13:10:36;;;;;;;;;;;;;;;15.53;43.33;102011.38;145002;924;1020;-84
2022/02/11 13:13:08;;;;;;;;;;;;;;;15.92;44.47;102008.19;145002;924;1017;-85
2022/02/11 13:15:37;;;;;;;;;;;;;;;15.99;45.31;101997.88;145002;924;1020;-83
2022/02/11 13:18:10;;;;;;;;;;;;;;;16.16;45.42;102001.84;145002;924;1017;-83
2022/02/11 13:20:40;;;;;;;;;;;;;;;15.92;42.00;101997.72;145002;924;1020;-83
2022/02/11 13:23:07;;;;;;;;;;;;;;;15.65;41.28;102002.13;145002;924;1017;-84
2022/02/11 13:25:33;;;;;;;;;;;;;;;15.48;42.28;102004.22;145002;924;1017;-82
2022/02/11 13:28:09;;;;;;;;;;;;;;;15.39;41.60;102010.97;145002;924;1020;-85
2022/02/11 13:30:37;;;;;;;;;;;;;;;15.37;41.32;102011.78;145002;924;1017;-83
2022/02/11 13:33:21;;;;;;;;;;;;;;;15.15;42.83;102004.97;145002;924;1018;-83
2022/02/11 13:35:49;;;;;;;;;;;;;;;15.37;44.49;102012.66;145002;920;1018;-83
2022/02/11 13:38:26;;;;;;;;;;;;;;;15.29;42.98;102008.00;145003;920;1019;-83
2022/02/11 13:40:56;;;;;;;;;;;;;;;15.57;43.90;102004.50;145003;922;1020;-86
2022/02/11 13:43:33;;;;;;;;;;;;;;;15.40;43.68;102009.25;145003;922;1020;-84
2022/02/11 13:46:06;;;;;;;;;;;;;;;15.54;42.07;102005.31;145003;922;1023;-86
2022/02/11 13:48:59;;;;;;;;;;;;;;;15.42;44.23;102005.81;145003;922;1016;-86
2022/02/11 13:51:27;;;;;;;;;;;;;;;15.36;44.63;102009.97;145003;922;1020;-86
2022/02/11 13:53:53;;;;;;;;;;;;;;;15.64;44.40;102016.03;145003;924;1016;-85
2022/02/11 13:56:52;;;;;;;;;;;;;;;15.41;43.87;102005.78;145003;924;1017;-86
2022/02/11 13:59:25;;;;;;;;;;;;;;;15.17;44.62;102006.78;145003;921;1020;-86
2022/02/11 14:01:52;;;;;;;;;;;;;;;15.47;45.01;102008.56;145003;922;1020;-86
2022/02/11 14:04:19;;;;;;;;;;;;;;;15.15;46.29;102000.63;145003;922;1016;-85
2022/02/11 14:06:52;;;;;;;;;;;;;;;15.10;47.37;101998.72;145002;923;1017;-84
2022/02/11 14:09:47;;;;;;;;;;;;;;;15.21;46.54;101998.22;145002;922;1016;-84
2022/02/11 14:12:33;;;;;;;;;;;;;;;15.12;47.35;102003.16;145002;922;1021;-85
2022/02/11 14:15:05;;;;;;;;;;;;;;;14.81;48.75;102004.78;145002;922;1024;-86
2022/02/11 14:17:34;;;;;;;;;;;;;;;14.79;48.86;102006.44;145002;922;1018;-87
2022/02/11 14:20:04;;;;;;;;;;;;;;;14.59;49.00;101999.66;145002;922;1017;-85
2022/02/11 14:22:30;;;;;;;;;;;;;;;14.68;48.62;101994.75;145002;923;1018;-86
2022/02/11 14:24:59;;;;;;;;;;;;;;;14.71;49.63;101991.34;145002;922;1019;-84
2022/02/11 14:27:25;;;;;;;;;;;;;;;14.47;51.05;101990.53;145002;932;1017;-83
2022/02/11 14:29:51;;;;;;;;;;;;;;;14.66;50.49;101989.47;145002;922;1018;-85
2022/02/11 14:32:18;;;;;;;;;;;;;;;14.74;49.77;101981.00;145002;922;1017;-83
2022/02/11 14:34:44;;;;;;;;;;;;;;;14.70;50.22;101977.41;145002;922;1021;-85
2022/02/11 14:37:11;;;;;;;;;;;;;;;14.69;49.69;101980.84;145002;921;1020;-86
2022/02/11 14:39:37;;;;;;;;;;;;;;;14.90;49.43;101967.56;145001;922;2000;-84
2022/02/11 14:42:07;;;;;;;;;;;;;;;14.61;51.10;101967.53;145002;922;1021;-85
2022/02/11 14:44:34;;;;;;;;;;;;;;;14.64;50.86;101967.62;145002;922;1016;-84
2022/02/11 14:47:01;;;;;;;;;;;;;;;14.47;50.67;101963.53;145002;922;1019;-85
2022/02/11 14:49:27;;;;;;;;;;;;;;;14.43;51.32;101959.94;145002;922;1019;-85
2022/02/11 14:51:57;;;;;;;;;;;;;;;14.32;52.43;101962.19;145002;923;1017;-87
2022/02/11 14:54:24;;;;;;;;;;;;;;;14.67;50.13;101959.00;145002;922;1021;-85
2022/02/11 14:56:55;;;;;;;;;;;;;;;14.39;51.70;101959.78;145002;922;1019;-86
2022/02/11 14:59:26;;;;;;;;;;;;;;;14.49;50.98;101954.00;145002;923;1016;-87
2022/02/11 15:01:55;;;;;;;;;;;;;;;14.36;52.55;101955.31;145002;922;1018;-86
2022/02/11 15:04:21;;;;;;;;;;;;;;;14.18;53.15;101957.31;145002;922;1019;-86
2022/02/11 15:06:50;;;;;;;;;;;;;;;14.18;54.39;101950.38;145002;923;1020;-87
2022/02/11 15:09:17;;;;;;;;;;;;;;;14.29;53.43;101955.97;145002;922;1017;-85
2022/02/11 15:11:44;;;;;;;;;;;;;;;14.26;52.78;101954.12;145002;922;1018;-85
2022/02/11 15:14:11;;;;;;;;;;;;;;;14.19;53.96;101965.22;145002;922;1017;-89
2022/02/11 15:16:37;;;;;;;;;;;;;;;14.11;54.70;101958.81;145002;922;1020;-86
2022/02/11 15:19:06;;;;;;;;;;;;;;;14.23;52.32;101958.38;145001;922;2000;-85
2022/02/11 15:21:33;;;;;;;;;;;;;;;14.32;52.11;101958.69;145002;923;1020;-83
2022/02/11 15:23:59;;;;;;;;;;;;;;;14.17;52.62;101960.75;145002;922;1020;-82
2022/02/11 15:26:25;;;;;;;;;;;;;;;14.20;52.95;101959.13;145002;922;1018;-84
2022/02/11 15:28:52;;;;;;;;;;;;;;;14.14;55.41;101961.53;145002;923;1018;-85
2022/02/11 15:31:23;;;;;;;;;;;;;;;14.01;55.15;101959.34;145002;922;1016;-84
2022/02/11 15:33:50;;;;;;;;;;;;;;;13.93;55.75;101959.06;145002;922;1019;-85
2022/02/11 15:36:33;;;;;;;;;;;;;;;13.86;55.83;101960.56;145002;923;1019;-86
2022/02/11 15:39:08;;;;;;;;;;;;;;;14.03;57.82;101961.19;145002;922;1016;-87
2022/02/11 15:41:34;;;;;;;;;;;;;;;14.13;55.13;101955.44;145002;922;1018;-85
2022/02/11 15:44:00;;;;;;;;;;;;;;;14.34;53.87;101954.41;145002;922;1016;-85
2022/02/11 15:46:27;;;;;;;;;;;;;;;14.52;53.92;101957.62;145002;922;1016;-86
2022/02/11 15:48:54;;;;;;;;;;;;;;;14.37;56.26;101959.72;145002;922;1017;-86
2022/02/11 15:51:28;;;;;;;;;;;;;;;14.29;57.04;101964.69;145002;923;1016;-85
2022/02/11 15:54:04;;;;;;;;;;;;;;;14.25;56.16;101964.53;145002;922;1016;-85
2022/02/11 15:56:35;;;;;;;;;;;;;;;14.33;58.82;101968.28;145002;922;1016;-86
2022/02/11 15:59:06;;;;;;;;;;;;;;;14.45;55.48;101967.81;145002;923;1016;-88
2022/02/11 16:01:37;;;;;;;;;;;;;;;14.49;56.34;101972.31;145002;922;1016;-83
2022/02/11 16:04:09;;;;;;;;;;;;;;;14.32;59.54;101971.75;145002;923;1016;-85
2022/02/11 16:06:40;;;;;;;;;;;;;;;14.25;60.31;101969.75;145001;921;2000;-86
2022/02/11 16:09:07;;;;;;;;;;;;;;;14.35;58.50;101971.84;145002;922;1016;-85
2022/02/11 16:11:39;;;;;;;;;;;;;;;14.32;58.21;101974.34;145002;923;1017;-85
2022/02/11 16:14:10;;;;;;;;;;;;;;;14.40;56.18;101969.41;145002;923;1016;-85
2022/02/11 16:16:38;;;;;;;;;;;;;;;14.14;61.71;101978.09;145002;923;1017;-85
2022/02/11 16:19:07;;;;;;;;;;;;;;;14.19;58.16;101979.97;145002;923;1016;-87
2022/02/11 16:21:34;;;;;;;;;;;;;;;14.25;60.23;101991.56;145002;923;1017;-85
2022/02/11 16:24:02;;;;;;;;;;;;;;;14.31;56.61;101973.44;145002;922;1019;-91
2022/02/11 16:26:33;;;;;;;;;;;;;;;14.33;56.84;101989.19;145002;923;1017;-86
2022/02/11 16:29:06;;;;;;;;;;;;;;;14.32;57.33;101985.69;145002;923;1016;-91
2022/02/11 16:31:34;;;;;;;;;;;;;;;14.48;55.92;101992.31;145002;922;1016;-84
2022/02/11 16:34:02;;;;;;;;;;;;;;;14.57;56.13;101994.38;145002;923;1017;-85
2022/02/11 16:36:36;;;;;;;;;;;;;;;14.66;55.81;101996.44;145002;923;1017;-80
2022/02/11 16:39:10;;;;;;;;;;;;;;;14.74;56.45;102000.19;145002;922;1016;-89
2022/02/11 16:41:39;;;;;;;;;;;;;;;14.75;56.29;102001.09;145002;923;1017;-86